sensor_id;sensor_type;location;lat;lon;timestamp;temperature;humidity
77467;DHT22;66564;42.482;25.548;2023-02-15T00:01:17;4.60;53.85
77467;DHT22;66564;42.482;25.548;2023-02-15T00:03:43;4.58;54.19
77467;DHT22;66564;42.482;25.548;2023-02-15T00:06:08;4.60;53.74
77467;DHT22;66564;42.482;25.548;2023-02-15T00:08:34;4.54;54.21
77467;DHT22;66564;42.482;25.548;2023-02-15T00:11:11;4.51;54.20
77467;DHT22;66564;42.482;25.548;2023-02-15T00:13:37;4.67;53.96
77467;DHT22;66564;42.482;25.548;2023-02-15T00:16:09;4.62;54.02
77467;DHT22;66564;42.482;25.548;2023-02-15T00:18:35;4.65;53.92
77467;DHT22;66564;42.482;25.548;2023-02-15T00:21:06;4.58;54.33
77467;DHT22;66564;42.482;25.548;2023-02-15T00:23:32;4.53;54.13
77467;DHT22;66564;42.482;25.548;2023-02-15T00:28:30;4.51;54.92
77467;DHT22;66564;42.482;25.548;2023-02-15T00:31:06;4.58;54.58
77467;DHT22;66564;42.482;25.548;2023-02-15T00:33:32;4.64;53.92
77467;DHT22;66564;42.482;25.548;2023-02-15T00:35:59;4.65;53.73
77467;DHT22;66564;42.482;25.548;2023-02-15T00:38:26;4.67;53.71
77467;DHT22;66564;42.482;25.548;2023-02-15T00:40:59;4.61;53.63
77467;DHT22;66564;42.482;25.548;2023-02-15T00:43:26;4.57;54.00
77467;DHT22;66564;42.482;25.548;2023-02-15T00:45:52;4.57;54.36
77467;DHT22;66564;42.482;25.548;2023-02-15T00:48:19;4.61;54.16
77467;DHT22;66564;42.482;25.548;2023-02-15T00:50:56;4.62;53.89
77467;DHT22;66564;42.482;25.548;2023-02-15T00:53:22;4.51;54.07
77467;DHT22;66564;42.482;25.548;2023-02-15T00:55:47;4.61;53.97
77467;DHT22;66564;42.482;25.548;2023-02-15T00:58:13;4.67;53.42
77467;DHT22;66564;42.482;25.548;2023-02-15T01:00:41;4.51;53.26
77467;DHT22;66564;42.482;25.548;2023-02-15T01:03:07;4.57;53.40
77467;DHT22;66564;42.482;25.548;2023-02-15T01:05:33;4.60;53.34
77467;DHT22;66564;42.482;25.548;2023-02-15T01:07:59;4.57;52.94
77467;DHT22;66564;42.482;25.548;2023-02-15T01:10:25;4.58;52.76
77467;DHT22;66564;42.482;25.548;2023-02-15T01:12:51;4.46;52.94
77467;DHT22;66564;42.482;25.548;2023-02-15T01:15:17;4.43;53.38
77467;DHT22;66564;42.482;25.548;2023-02-15T01:17:42;4.47;53.09
77467;DHT22;66564;42.482;25.548;2023-02-15T01:20:11;4.50;53.29
77467;DHT22;66564;42.482;25.548;2023-02-15T01:22:37;4.47;52.65
77467;DHT22;66564;42.482;25.548;2023-02-15T01:25:03;4.51;52.49
77467;DHT22;66564;42.482;25.548;2023-02-15T01:27:28;4.47;53.18
77467;DHT22;66564;42.482;25.548;2023-02-15T01:29:56;4.48;52.91
77467;DHT22;66564;42.482;25.548;2023-02-15T01:32:22;4.47;53.59
77467;DHT22;66564;42.482;25.548;2023-02-15T01:34:47;4.48;52.88
77467;DHT22;66564;42.482;25.548;2023-02-15T01:37:13;4.51;53.25
77467;DHT22;66564;42.482;25.548;2023-02-15T01:39:38;4.50;53.36
77467;DHT22;66564;42.482;25.548;2023-02-15T01:42:04;4.53;52.93
77467;DHT22;66564;42.482;25.548;2023-02-15T01:44:52;4.53;53.03
77467;DHT22;66564;42.482;25.548;2023-02-15T01:47:27;4.57;52.83
77467;DHT22;66564;42.482;25.548;2023-02-15T01:49:59;4.56;53.29
77467;DHT22;66564;42.482;25.548;2023-02-15T01:52:26;4.54;53.22
77467;DHT22;66564;42.482;25.548;2023-02-15T01:54:52;4.51;53.58
77467;DHT22;66564;42.482;25.548;2023-02-15T01:57:21;4.56;53.72
77467;DHT22;66564;42.482;25.548;2023-02-15T01:59:48;4.58;52.92
77467;DHT22;66564;42.482;25.548;2023-02-15T02:02:17;4.46;53.29
77467;DHT22;66564;42.482;25.548;2023-02-15T02:04:50;4.47;53.46
77467;DHT22;66564;42.482;25.548;2023-02-15T02:07:19;4.47;53.16
77467;DHT22;66564;42.482;25.548;2023-02-15T02:09:45;4.47;54.03
77467;DHT22;66564;42.482;25.548;2023-02-15T02:12:11;4.47;54.18
77467;DHT22;66564;42.482;25.548;2023-02-15T02:14:38;4.48;53.52
77467;DHT22;66564;42.482;25.548;2023-02-15T02:34:30;4.54;53.61
77467;DHT22;66564;42.482;25.548;2023-02-15T02:37:18;4.56;53.84
77467;DHT22;66564;42.482;25.548;2023-02-15T02:43:01;4.57;54.03
77467;DHT22;66564;42.482;25.548;2023-02-15T02:45:32;4.58;54.01
77467;DHT22;66564;42.482;25.548;2023-02-15T02:48:04;4.47;53.48
77467;DHT22;66564;42.482;25.548;2023-02-15T02:50:31;4.38;54.18
77467;DHT22;66564;42.482;25.548;2023-02-15T02:52:58;4.33;54.37
77467;DHT22;66564;42.482;25.548;2023-02-15T02:55:31;4.30;54.11
77467;DHT22;66564;42.482;25.548;2023-02-15T02:58:07;4.33;53.94
77467;DHT22;66564;42.482;25.548;2023-02-15T03:00:59;4.21;54.75
77467;DHT22;66564;42.482;25.548;2023-02-15T03:03:27;4.29;54.54
77467;DHT22;66564;42.482;25.548;2023-02-15T03:05:58;4.24;55.15
77467;DHT22;66564;42.482;25.548;2023-02-15T03:08:30;4.24;54.85
77467;DHT22;66564;42.482;25.548;2023-02-15T03:10:59;4.24;55.17
77467;DHT22;66564;42.482;25.548;2023-02-15T03:13:26;4.17;54.64
77467;DHT22;66564;42.482;25.548;2023-02-15T03:15:52;4.13;55.10
77467;DHT22;66564;42.482;25.548;2023-02-15T03:18:44;4.16;54.77
77467;DHT22;66564;42.482;25.548;2023-02-15T03:21:20;4.13;55.53
77467;DHT22;66564;42.482;25.548;2023-02-15T03:23:54;4.14;54.54
77467;DHT22;66564;42.482;25.548;2023-02-15T03:26:23;4.17;54.94
77467;DHT22;66564;42.482;25.548;2023-02-15T03:28:50;4.11;54.95
77467;DHT22;66564;42.482;25.548;2023-02-15T03:31:20;4.09;55.40
77467;DHT22;66564;42.482;25.548;2023-02-15T03:33:56;4.10;55.15
77467;DHT22;66564;42.482;25.548;2023-02-15T03:36:37;4.10;55.07
77467;DHT22;66564;42.482;25.548;2023-02-15T03:39:10;4.04;55.82
77467;DHT22;66564;42.482;25.548;2023-02-15T03:41:46;4.03;55.15
77467;DHT22;66564;42.482;25.548;2023-02-15T03:44:27;4.09;55.56
77467;DHT22;66564;42.482;25.548;2023-02-15T03:49:49;3.76;56.69
77467;DHT22;66564;42.482;25.548;2023-02-15T03:52:15;3.85;56.25
77467;DHT22;66564;42.482;25.548;2023-02-15T03:54:42;3.80;56.59
77467;DHT22;66564;42.482;25.548;2023-02-15T03:57:22;3.78;56.77
77467;DHT22;66564;42.482;25.548;2023-02-15T04:00:27;3.66;57.03
77467;DHT22;66564;42.482;25.548;2023-02-15T04:05:52;3.78;56.63
77467;DHT22;66564;42.482;25.548;2023-02-15T04:08:18;3.75;56.89
77467;DHT22;66564;42.482;25.548;2023-02-15T04:10:43;3.75;56.88
77467;DHT22;66564;42.482;25.548;2023-02-15T04:13:23;3.76;56.77
77467;DHT22;66564;42.482;25.548;2023-02-15T04:15:49;3.85;56.34
77467;DHT22;66564;42.482;25.548;2023-02-15T04:18:38;3.87;56.05
77467;DHT22;66564;42.482;25.548;2023-02-15T04:21:24;3.76;57.01
77467;DHT22;66564;42.482;25.548;2023-02-15T04:24:08;3.86;56.59
77467;DHT22;66564;42.482;25.548;2023-02-15T04:26:52;3.79;56.42
77467;DHT22;66564;42.482;25.548;2023-02-15T04:29:19;3.72;56.84
77467;DHT22;66564;42.482;25.548;2023-02-15T04:31:44;3.69;56.86
77467;DHT22;66564;42.482;25.548;2023-02-15T04:34:10;3.65;57.25
77467;DHT22;66564;42.482;25.548;2023-02-15T04:36:37;3.65;57.24
77467;DHT22;66564;42.482;25.548;2023-02-15T04:39:02;3.72;57.07
77467;DHT22;66564;42.482;25.548;2023-02-15T04:41:28;3.82;56.62
77467;DHT22;66564;42.482;25.548;2023-02-15T04:43:53;3.78;56.99
77467;DHT22;66564;42.482;25.548;2023-02-15T04:46:19;3.75;56.87
77467;DHT22;66564;42.482;25.548;2023-02-15T04:48:45;3.73;56.99
77467;DHT22;66564;42.482;25.548;2023-02-15T04:51:10;3.79;56.77
77467;DHT22;66564;42.482;25.548;2023-02-15T04:53:36;3.83;56.83
77467;DHT22;66564;42.482;25.548;2023-02-15T04:56:02;3.51;58.45
77467;DHT22;66564;42.482;25.548;2023-02-15T04:58:28;3.66;57.59
77467;DHT22;66564;42.482;25.548;2023-02-15T05:01:02;3.73;57.42
77467;DHT22;66564;42.482;25.548;2023-02-15T05:03:41;3.48;58.28
77467;DHT22;66564;42.482;25.548;2023-02-15T05:06:38;3.69;57.61
77467;DHT22;66564;42.482;25.548;2023-02-15T05:09:27;3.70;57.57
77467;DHT22;66564;42.482;25.548;2023-02-15T05:11:53;3.59;58.03
77467;DHT22;66564;42.482;25.548;2023-02-15T05:14:18;3.75;57.39
77467;DHT22;66564;42.482;25.548;2023-02-15T05:16:44;3.83;57.06
77467;DHT22;66564;42.482;25.548;2023-02-15T05:19:09;3.90;57.11
77467;DHT22;66564;42.482;25.548;2023-02-15T05:21:35;3.89;56.77
77467;DHT22;66564;42.482;25.548;2023-02-15T05:24:00;3.85;56.70
77467;DHT22;66564;42.482;25.548;2023-02-15T05:27:07;3.94;56.54
77467;DHT22;66564;42.482;25.548;2023-02-15T05:30:12;3.99;56.66
77467;DHT22;66564;42.482;25.548;2023-02-15T05:33:37;4.02;56.21
77467;DHT22;66564;42.482;25.548;2023-02-15T05:37:02;3.87;56.60
77467;DHT22;66564;42.482;25.548;2023-02-15T05:40:28;3.87;56.80
77467;DHT22;66564;42.482;25.548;2023-02-15T05:43:54;3.90;56.50
77467;DHT22;66564;42.482;25.548;2023-02-15T05:47:18;3.89;56.75
77467;DHT22;66564;42.482;25.548;2023-02-15T05:50:43;3.92;56.46
77467;DHT22;66564;42.482;25.548;2023-02-15T05:54:08;3.96;56.67
77467;DHT22;66564;42.482;25.548;2023-02-15T05:57:34;4.00;56.66
77467;DHT22;66564;42.482;25.548;2023-02-15T06:00:59;3.99;56.57
77467;DHT22;66564;42.482;25.548;2023-02-15T06:04:04;4.00;56.61
77467;DHT22;66564;42.482;25.548;2023-02-15T06:06:29;4.03;56.86
77467;DHT22;66564;42.482;25.548;2023-02-15T06:08:55;4.10;56.30
77467;DHT22;66564;42.482;25.548;2023-02-15T06:11:20;4.07;56.43
77467;DHT22;66564;42.482;25.548;2023-02-15T06:13:46;4.06;56.47
77467;DHT22;66564;42.482;25.548;2023-02-15T06:16:11;3.97;56.92
77467;DHT22;66564;42.482;25.548;2023-02-15T06:18:37;3.97;57.17
77467;DHT22;66564;42.482;25.548;2023-02-15T06:21:02;3.99;56.90
77467;DHT22;66564;42.482;25.548;2023-02-15T06:23:28;4.02;57.38
77467;DHT22;66564;42.482;25.548;2023-02-15T06:25:53;3.99;57.50
77467;DHT22;66564;42.482;25.548;2023-02-15T06:28:19;4.02;57.32
77467;DHT22;66564;42.482;25.548;2023-02-15T06:30:44;4.06;57.32
77467;DHT22;66564;42.482;25.548;2023-02-15T06:33:10;4.09;57.29
77467;DHT22;66564;42.482;25.548;2023-02-15T06:35:36;4.17;57.44
77467;DHT22;66564;42.482;25.548;2023-02-15T06:38:01;4.43;56.91
77467;DHT22;66564;42.482;25.548;2023-02-15T06:40:27;4.68;56.48
77467;DHT22;66564;42.482;25.548;2023-02-15T06:42:52;4.91;55.95
77467;DHT22;66564;42.482;25.548;2023-02-15T06:45:18;5.18;55.08
77467;DHT22;66564;42.482;25.548;2023-02-15T06:47:43;5.49;54.33
77467;DHT22;66564;42.482;25.548;2023-02-15T06:50:09;5.70;54.01
77467;DHT22;66564;42.482;25.548;2023-02-15T06:52:34;6.00;53.22
77467;DHT22;66564;42.482;25.548;2023-02-15T06:55:00;6.34;52.15
77467;DHT22;66564;42.482;25.548;2023-02-15T06:57:26;6.53;50.95
77467;DHT22;66564;42.482;25.548;2023-02-15T06:59:51;6.68;51.80
77467;DHT22;66564;42.482;25.548;2023-02-15T07:02:18;6.68;50.84
77467;DHT22;66564;42.482;25.548;2023-02-15T07:04:43;6.67;50.59
77467;DHT22;66564;42.482;25.548;2023-02-15T07:07:12;6.68;50.20
77467;DHT22;66564;42.482;25.548;2023-02-15T07:09:38;6.73;50.59
77467;DHT22;66564;42.482;25.548;2023-02-15T07:12:04;6.78;50.79
77467;DHT22;66564;42.482;25.548;2023-02-15T07:14:48;6.82;50.56
77467;DHT22;66564;42.482;25.548;2023-02-15T07:17:13;6.79;50.20
77467;DHT22;66564;42.482;25.548;2023-02-15T07:19:39;6.76;49.79
77467;DHT22;66564;42.482;25.548;2023-02-15T07:22:04;6.73;50.21
77467;DHT22;66564;42.482;25.548;2023-02-15T07:24:30;6.71;50.52
77467;DHT22;66564;42.482;25.548;2023-02-15T07:26:56;6.69;50.64
77467;DHT22;66564;42.482;25.548;2023-02-15T07:29:22;6.67;49.90
77467;DHT22;66564;42.482;25.548;2023-02-15T07:31:48;6.61;49.93
77467;DHT22;66564;42.482;25.548;2023-02-15T07:34:14;6.56;50.06
77467;DHT22;66564;42.482;25.548;2023-02-15T07:36:42;6.55;50.55
77467;DHT22;66564;42.482;25.548;2023-02-15T07:39:10;6.49;50.31
77467;DHT22;66564;42.482;25.548;2023-02-15T07:41:35;6.44;50.25
77467;DHT22;66564;42.482;25.548;2023-02-15T07:44:01;6.46;50.26
77467;DHT22;66564;42.482;25.548;2023-02-15T07:46:27;6.49;50.20
77467;DHT22;66564;42.482;25.548;2023-02-15T07:48:55;6.45;50.11
77467;DHT22;66564;42.482;25.548;2023-02-15T07:51:21;6.62;50.27
77467;DHT22;66564;42.482;25.548;2023-02-15T07:53:47;6.64;50.23
77467;DHT22;66564;42.482;25.548;2023-02-15T07:56:13;6.85;50.22
77467;DHT22;66564;42.482;25.548;2023-02-15T07:58:39;6.88;49.81
77467;DHT22;66564;42.482;25.548;2023-02-15T08:01:29;7.00;49.62
77467;DHT22;66564;42.482;25.548;2023-02-15T08:03:55;6.96;50.03
77467;DHT22;66564;42.482;25.548;2023-02-15T08:06:22;6.97;49.12
77467;DHT22;66564;42.482;25.548;2023-02-15T08:08:48;7.02;49.14
77467;DHT22;66564;42.482;25.548;2023-02-15T08:11:27;7.15;49.26
77467;DHT22;66564;42.482;25.548;2023-02-15T08:14:17;6.81;49.51
77467;DHT22;66564;42.482;25.548;2023-02-15T08:16:50;6.75;49.72
77467;DHT22;66564;42.482;25.548;2023-02-15T08:19:17;6.86;49.01
77467;DHT22;66564;42.482;25.548;2023-02-15T08:21:46;7.03;49.03
77467;DHT22;66564;42.482;25.548;2023-02-15T08:24:16;7.19;49.05
77467;DHT22;66564;42.482;25.548;2023-02-15T08:26:41;7.43;48.59
77467;DHT22;66564;42.482;25.548;2023-02-15T08:29:08;7.42;47.83
77467;DHT22;66564;42.482;25.548;2023-02-15T08:31:34;7.70;47.89
77467;DHT22;66564;42.482;25.548;2023-02-15T08:34:00;7.91;47.22
77467;DHT22;66564;42.482;25.548;2023-02-15T08:36:28;8.15;46.63
77467;DHT22;66564;42.482;25.548;2023-02-15T08:38:57;8.34;45.90
77467;DHT22;66564;42.482;25.548;2023-02-15T08:41:27;8.48;45.95
77467;DHT22;66564;42.482;25.548;2023-02-15T08:43:55;8.52;45.12
77467;DHT22;66564;42.482;25.548;2023-02-15T08:46:24;8.56;45.78
77467;DHT22;66564;42.482;25.548;2023-02-15T08:48:49;8.79;44.90
77467;DHT22;66564;42.482;25.548;2023-02-15T08:51:27;8.93;43.61
77467;DHT22;66564;42.482;25.548;2023-02-15T08:53:55;9.00;44.30
77467;DHT22;66564;42.482;25.548;2023-02-15T08:56:24;9.28;43.96
77467;DHT22;66564;42.482;25.548;2023-02-15T08:58:49;9.34;43.08
77467;DHT22;66564;42.482;25.548;2023-02-15T09:01:18;9.19;43.32
77467;DHT22;66564;42.482;25.548;2023-02-15T09:03:46;9.48;42.61
77467;DHT22;66564;42.482;25.548;2023-02-15T09:06:33;9.58;42.66
77467;DHT22;66564;42.482;25.548;2023-02-15T09:09:35;9.68;42.63
77467;DHT22;66564;42.482;25.548;2023-02-15T09:14:45;9.86;41.38
77467;DHT22;66564;42.482;25.548;2023-02-15T09:17:37;9.94;41.27
77467;DHT22;66564;42.482;25.548;2023-02-15T09:20:03;10.02;41.04
77467;DHT22;66564;42.482;25.548;2023-02-15T09:22:29;10.02;41.49
77467;DHT22;66564;42.482;25.548;2023-02-15T09:24:56;9.98;40.86
77467;DHT22;66564;42.482;25.548;2023-02-15T09:27:21;10.05;41.22
77467;DHT22;66564;42.482;25.548;2023-02-15T09:29:47;10.15;42.00
77467;DHT22;66564;42.482;25.548;2023-02-15T09:32:14;10.28;41.41
77467;DHT22;66564;42.482;25.548;2023-02-15T09:34:40;10.38;40.69
77467;DHT22;66564;42.482;25.548;2023-02-15T09:37:05;10.39;40.43
77467;DHT22;66564;42.482;25.548;2023-02-15T09:39:31;10.48;39.67
77467;DHT22;66564;42.482;25.548;2023-02-15T09:44:39;10.40;40.45
77467;DHT22;66564;42.482;25.548;2023-02-15T10:13:34;10.83;38.75
77467;DHT22;66564;42.482;25.548;2023-02-15T10:16:28;10.72;39.67
77467;DHT22;66564;42.482;25.548;2023-02-15T10:19:23;10.76;38.94
77467;DHT22;66564;42.482;25.548;2023-02-15T10:22:35;10.76;38.90
77467;DHT22;66564;42.482;25.548;2023-02-15T10:27:46;10.30;39.52
77467;DHT22;66564;42.482;25.548;2023-02-15T10:30:20;10.40;39.17
77467;DHT22;66564;42.482;25.548;2023-02-15T10:44:17;10.32;39.98
77467;DHT22;66564;42.482;25.548;2023-02-15T10:55:17;11.00;37.99
77467;DHT22;66564;42.482;25.548;2023-02-15T10:57:56;11.14;39.92
77467;DHT22;66564;42.482;25.548;2023-02-15T11:00:38;11.25;38.66
77467;DHT22;66564;42.482;25.548;2023-02-15T11:06:11;11.47;39.68
77467;DHT22;66564;42.482;25.548;2023-02-15T11:08:48;11.65;39.06
77467;DHT22;66564;42.482;25.548;2023-02-15T11:11:21;11.95;39.34
77467;DHT22;66564;42.482;25.548;2023-02-15T11:13:51;12.15;36.50
77467;DHT22;66564;42.482;25.548;2023-02-15T11:16:21;12.37;36.98
77467;DHT22;66564;42.482;25.548;2023-02-15T11:18:57;12.47;34.48
77467;DHT22;66564;42.482;25.548;2023-02-15T11:21:40;12.57;35.66
77467;DHT22;66564;42.482;25.548;2023-02-15T11:24:13;12.67;36.66
77467;DHT22;66564;42.482;25.548;2023-02-15T11:26:46;13.03;35.82
77467;DHT22;66564;42.482;25.548;2023-02-15T11:29:21;13.32;37.04
77467;DHT22;66564;42.482;25.548;2023-02-15T11:31:55;13.59;36.12
77467;DHT22;66564;42.482;25.548;2023-02-15T11:34:29;13.86;32.96
77467;DHT22;66564;42.482;25.548;2023-02-15T11:37:01;13.90;32.69
77467;DHT22;66564;42.482;25.548;2023-02-15T11:39:30;14.09;35.14
77467;DHT22;66564;42.482;25.548;2023-02-15T11:42:01;14.12;35.75
77467;DHT22;66564;42.482;25.548;2023-02-15T11:44:35;14.22;36.58
77467;DHT22;66564;42.482;25.548;2023-02-15T11:47:02;14.53;36.63
77467;DHT22;66564;42.482;25.548;2023-02-15T11:49:34;14.87;34.09
77467;DHT22;66564;42.482;25.548;2023-02-15T11:52:10;15.15;33.70
77467;DHT22;66564;42.482;25.548;2023-02-15T11:54:46;15.35;32.40
77467;DHT22;66564;42.482;25.548;2023-02-15T11:57:23;15.46;30.98
77467;DHT22;66564;42.482;25.548;2023-02-15T11:59:58;15.61;32.02
77467;DHT22;66564;42.482;25.548;2023-02-15T12:02:25;15.62;29.85
77467;DHT22;66564;42.482;25.548;2023-02-15T12:05:01;15.66;31.28
77467;DHT22;66564;42.482;25.548;2023-02-15T12:07:34;15.63;29.82
77467;DHT22;66564;42.482;25.548;2023-02-15T12:10:27;15.61;30.90
77467;DHT22;66564;42.482;25.548;2023-02-15T12:15:37;15.25;30.11
77467;DHT22;66564;42.482;25.548;2023-02-15T12:18:03;15.52;32.54
77467;DHT22;66564;42.482;25.548;2023-02-15T12:20:31;15.73;30.16
77467;DHT22;66564;42.482;25.548;2023-02-15T12:23:02;15.70;29.57
77467;DHT22;66564;42.482;25.548;2023-02-15T12:25:40;15.73;29.68
77467;DHT22;66564;42.482;25.548;2023-02-15T12:28:40;15.63;29.29
77467;DHT22;66564;42.482;25.548;2023-02-15T12:31:26;14.56;30.23
77467;DHT22;66564;42.482;25.548;2023-02-15T12:33:55;14.37;31.44
77467;DHT22;66564;42.482;25.548;2023-02-15T12:36:29;14.57;30.60
77467;DHT22;66564;42.482;25.548;2023-02-15T12:41:33;14.56;30.54
77467;DHT22;66564;42.482;25.548;2023-02-15T12:44:05;13.99;31.14
77467;DHT22;66564;42.482;25.548;2023-02-15T12:46:32;13.99;31.46
77467;DHT22;66564;42.482;25.548;2023-02-15T12:51:54;14.36;31.21
77467;DHT22;66564;42.482;25.548;2023-02-15T12:54:46;14.59;31.28
77467;DHT22;66564;42.482;25.548;2023-02-15T12:57:30;14.76;30.44
77467;DHT22;66564;42.482;25.548;2023-02-15T13:00:02;14.95;33.06
77467;DHT22;66564;42.482;25.548;2023-02-15T13:02:41;15.21;32.97
77467;DHT22;66564;42.482;25.548;2023-02-15T13:05:21;15.15;29.95
77467;DHT22;66564;42.482;25.548;2023-02-15T13:07:57;15.17;29.65
77467;DHT22;66564;42.482;25.548;2023-02-15T13:10:35;15.25;29.68
77467;DHT22;66564;42.482;25.548;2023-02-15T13:13:01;15.27;28.99
77467;DHT22;66564;42.482;25.548;2023-02-15T13:15:36;14.73;29.15
77467;DHT22;66564;42.482;25.548;2023-02-15T13:18:05;14.94;28.39
77467;DHT22;66564;42.482;25.548;2023-02-15T13:20:35;14.90;28.44
77467;DHT22;66564;42.482;25.548;2023-02-15T13:23:08;14.97;30.48
77467;DHT22;66564;42.482;25.548;2023-02-15T13:25:44;15.05;30.07
77467;DHT22;66564;42.482;25.548;2023-02-15T13:28:19;15.07;29.07
77467;DHT22;66564;42.482;25.548;2023-02-15T13:30:47;15.14;31.04
77467;DHT22;66564;42.482;25.548;2023-02-15T13:33:30;15.02;28.67
77467;DHT22;66564;42.482;25.548;2023-02-15T13:36:09;14.38;29.47
77467;DHT22;66564;42.482;25.548;2023-02-15T13:44:51;14.38;29.32
77467;DHT22;66564;42.482;25.548;2023-02-15T13:50:32;14.26;29.19
77467;DHT22;66564;42.482;25.548;2023-02-15T13:55:43;14.41;29.37
77467;DHT22;66564;42.482;25.548;2023-02-15T14:00:49;14.32;29.68
77467;DHT22;66564;42.482;25.548;2023-02-15T14:06:43;14.26;28.98
77467;DHT22;66564;42.482;25.548;2023-02-15T14:15:14;14.26;28.53
77467;DHT22;66564;42.482;25.548;2023-02-15T14:22:37;14.38;30.15
77467;DHT22;66564;42.482;25.548;2023-02-15T14:25:16;14.36;28.83
77467;DHT22;66564;42.482;25.548;2023-02-15T14:27:56;14.19;27.25
77467;DHT22;66564;42.482;25.548;2023-02-15T14:30:36;13.83;27.92
77467;DHT22;66564;42.482;25.548;2023-02-15T14:33:25;13.78;28.35
77467;DHT22;66564;42.482;25.548;2023-02-15T14:35:54;13.75;28.50
77467;DHT22;66564;42.482;25.548;2023-02-15T14:41:17;13.61;28.19
77467;DHT22;66564;42.482;25.548;2023-02-15T14:49:35;13.25;29.63
77467;DHT22;66564;42.482;25.548;2023-02-15T14:52:07;13.10;29.65
77467;DHT22;66564;42.482;25.548;2023-02-15T15:02:47;12.70;30.71
77467;DHT22;66564;42.482;25.548;2023-02-15T15:05:19;12.57;30.56
77467;DHT22;66564;42.482;25.548;2023-02-15T15:08:17;12.42;31.54
77467;DHT22;66564;42.482;25.548;2023-02-15T15:11:43;12.28;32.26
77467;DHT22;66564;42.482;25.548;2023-02-15T15:15:11;12.13;32.06
77467;DHT22;66564;42.482;25.548;2023-02-15T15:18:48;11.99;32.19
77467;DHT22;66564;42.482;25.548;2023-02-15T15:27:41;11.54;34.20
77467;DHT22;66564;42.482;25.548;2023-02-15T15:32:47;11.21;35.34
77467;DHT22;66564;42.482;25.548;2023-02-15T15:37:59;10.83;34.90
77467;DHT22;66564;42.482;25.548;2023-02-15T15:43:47;10.43;35.11
77467;DHT22;66564;42.482;25.548;2023-02-15T15:49:47;10.01;35.93
77467;DHT22;66564;42.482;25.548;2023-02-15T15:52:20;9.91;35.61
77467;DHT22;66564;42.482;25.548;2023-02-15T15:54:50;9.74;37.01
77467;DHT22;66564;42.482;25.548;2023-02-15T15:57:38;9.61;36.69
77467;DHT22;66564;42.482;25.548;2023-02-15T16:00:16;9.33;36.94
77467;DHT22;66564;42.482;25.548;2023-02-15T16:02:52;9.19;39.17
77467;DHT22;66564;42.482;25.548;2023-02-15T16:05:17;8.93;39.04
77467;DHT22;66564;42.482;25.548;2023-02-15T16:07:43;8.70;38.90
77467;DHT22;66564;42.482;25.548;2023-02-15T16:10:21;8.50;40.21
77467;DHT22;66564;42.482;25.548;2023-02-15T16:12:47;8.36;40.91
77467;DHT22;66564;42.482;25.548;2023-02-15T16:15:16;8.11;40.90
77467;DHT22;66564;42.482;25.548;2023-02-15T16:17:48;8.04;41.74
77467;DHT22;66564;42.482;25.548;2023-02-15T16:20:17;7.99;43.28
77467;DHT22;66564;42.482;25.548;2023-02-15T16:22:46;7.95;43.16
77467;DHT22;66564;42.482;25.548;2023-02-15T16:25:31;7.84;43.70
77467;DHT22;66564;42.482;25.548;2023-02-15T16:28:10;7.82;44.44
77467;DHT22;66564;42.482;25.548;2023-02-15T16:30:39;7.78;44.47
77467;DHT22;66564;42.482;25.548;2023-02-15T16:33:10;7.44;45.25
77467;DHT22;66564;42.482;25.548;2023-02-15T16:35:38;7.36;45.46
77467;DHT22;66564;42.482;25.548;2023-02-15T16:38:04;7.36;45.55
77467;DHT22;66564;42.482;25.548;2023-02-15T16:43:13;6.85;47.39
77467;DHT22;66564;42.482;25.548;2023-02-15T16:45:40;6.82;47.40
77467;DHT22;66564;42.482;25.548;2023-02-15T16:48:11;6.95;47.44
77467;DHT22;66564;42.482;25.548;2023-02-15T16:50:39;6.89;47.71
77467;DHT22;66564;42.482;25.548;2023-02-15T16:53:12;6.93;47.87
77467;DHT22;66564;42.482;25.548;2023-02-15T16:55:40;6.91;47.62
77467;DHT22;66564;42.482;25.548;2023-02-15T16:58:12;6.79;48.29
77467;DHT22;66564;42.482;25.548;2023-02-15T17:00:39;6.82;47.46
77467;DHT22;66564;42.482;25.548;2023-02-15T17:11:21;6.45;48.76
77467;DHT22;66564;42.482;25.548;2023-02-15T17:14:48;6.24;50.33
77467;DHT22;66564;42.482;25.548;2023-02-15T17:18:17;6.30;50.10
77467;DHT22;66564;42.482;25.548;2023-02-15T17:21:40;6.06;50.84
77467;DHT22;66564;42.482;25.548;2023-02-15T17:25:03;5.91;51.27
77467;DHT22;66564;42.482;25.548;2023-02-15T17:28:29;5.76;52.45
77467;DHT22;66564;42.482;25.548;2023-02-15T17:31:53;5.83;51.77
77467;DHT22;66564;42.482;25.548;2023-02-15T17:38:20;5.80;51.72
77467;DHT22;66564;42.482;25.548;2023-02-15T17:40:46;5.83;52.01
77467;DHT22;66564;42.482;25.548;2023-02-15T17:43:32;5.77;52.66
77467;DHT22;66564;42.482;25.548;2023-02-15T17:46:58;5.87;51.54
77467;DHT22;66564;42.482;25.548;2023-02-15T17:50:10;5.69;52.04
77467;DHT22;66564;42.482;25.548;2023-02-15T17:53:33;5.66;52.03
77467;DHT22;66564;42.482;25.548;2023-02-15T17:56:57;5.49;52.46
77467;DHT22;66564;42.482;25.548;2023-02-15T18:00:22;5.53;52.14
77467;DHT22;66564;42.482;25.548;2023-02-15T18:06:50;5.46;52.35
77467;DHT22;66564;42.482;25.548;2023-02-15T18:10:15;5.54;52.52
77467;DHT22;66564;42.482;25.548;2023-02-15T18:13:38;5.66;52.00
77467;DHT22;66564;42.482;25.548;2023-02-15T18:17:03;5.81;51.62
77467;DHT22;66564;42.482;25.548;2023-02-15T18:20:19;5.83;51.66
77467;DHT22;66564;42.482;25.548;2023-02-15T18:23:22;5.83;51.55
77467;DHT22;66564;42.482;25.548;2023-02-15T18:26:09;5.84;51.65
77467;DHT22;66564;42.482;25.548;2023-02-15T18:29:33;5.87;51.17
77467;DHT22;66564;42.482;25.548;2023-02-15T18:32:58;5.83;51.39
77467;DHT22;66564;42.482;25.548;2023-02-15T18:36:31;5.83;51.57
77467;DHT22;66564;42.482;25.548;2023-02-15T18:39:38;5.81;51.10
77467;DHT22;66564;42.482;25.548;2023-02-15T18:43:03;5.81;51.42
77467;DHT22;66564;42.482;25.548;2023-02-15T18:46:28;5.84;51.39
77467;DHT22;66564;42.482;25.548;2023-02-15T18:49:53;5.77;51.30
77467;DHT22;66564;42.482;25.548;2023-02-15T18:53:19;5.80;51.68
77467;DHT22;66564;42.482;25.548;2023-02-15T18:56:24;5.71;51.48
77467;DHT22;66564;42.482;25.548;2023-02-15T18:58:50;5.71;51.39
77467;DHT22;66564;42.482;25.548;2023-02-15T19:01:17;5.76;51.87
77467;DHT22;66564;42.482;25.548;2023-02-15T19:03:48;5.66;51.61
77467;DHT22;66564;42.482;25.548;2023-02-15T19:06:16;5.63;52.30
77467;DHT22;66564;42.482;25.548;2023-02-15T19:08:46;5.67;52.03
77467;DHT22;66564;42.482;25.548;2023-02-15T19:11:20;5.69;51.87
77467;DHT22;66564;42.482;25.548;2023-02-15T19:13:48;5.70;52.12
77467;DHT22;66564;42.482;25.548;2023-02-15T19:16:40;5.70;52.08
77467;DHT22;66564;42.482;25.548;2023-02-15T19:19:06;5.59;52.29
77467;DHT22;66564;42.482;25.548;2023-02-15T19:21:31;5.60;52.00
77467;DHT22;66564;42.482;25.548;2023-02-15T19:24:02;5.52;51.97